sensor_id;sensor_type;location;lat;lon;timestamp;temperature;humidity
19928;DHT22;10126;50.876;4.470;2023-07-31T00:00:19;17.20;99.90
19928;DHT22;10126;50.876;4.470;2023-07-31T00:02:20;17.30;99.90
19928;DHT22;10126;50.876;4.470;2023-07-31T00:04:21;17.50;99.90
19928;DHT22;10126;50.876;4.470;2023-07-31T00:06:21;17.50;99.90
19928;DHT22;10126;50.876;4.470;2023-07-31T00:08:22;17.50;99.90
19928;DHT22;10126;50.876;4.470;2023-07-31T00:10:23;17.50;99.90
19928;DHT22;10126;50.876;4.470;2023-07-31T00:12:23;17.50;99.90
19928;DHT22;10126;50.876;4.470;2023-07-31T00:14:24;17.60;99.90
19928;DHT22;10126;50.876;4.470;2023-07-31T00:16:25;17.60;99.90
19928;DHT22;10126;50.876;4.470;2023-07-31T00:18:26;17.60;99.90
19928;DHT22;10126;50.876;4.470;2023-07-31T00:20:26;17.60;99.90
19928;DHT22;10126;50.876;4.470;2023-07-31T00:22:27;17.60;99.90
19928;DHT22;10126;50.876;4.470;2023-07-31T00:24:28;17.60;99.90
19928;DHT22;10126;50.876;4.470;2023-07-31T00:26:28;17.70;99.90
19928;DHT22;10126;50.876;4.470;2023-07-31T00:28:29;17.70;99.90
19928;DHT22;10126;50.876;4.470;2023-07-31T00:30:30;17.60;99.90
19928;DHT22;10126;50.876;4.470;2023-07-31T00:32:30;17.60;99.90
19928;DHT22;10126;50.876;4.470;2023-07-31T00:34:31;17.50;99.90
19928;DHT22;10126;50.876;4.470;2023-07-31T00:36:48;17.60;99.90
19928;DHT22;10126;50.876;4.470;2023-07-31T00:38:49;17.60;99.90
19928;DHT22;10126;50.876;4.470;2023-07-31T00:41:08;17.70;99.90
19928;DHT22;10126;50.876;4.470;2023-07-31T00:44:27;17.70;99.90
19928;DHT22;10126;50.876;4.470;2023-07-31T00:46:18;17.60;99.90
19928;DHT22;10126;50.876;4.470;2023-07-31T00:48:38;17.70;99.90
19928;DHT22;10126;50.876;4.470;2023-07-31T00:50:39;17.80;99.90
19928;DHT22;10126;50.876;4.470;2023-07-31T00:52:40;17.80;99.90
19928;DHT22;10126;50.876;4.470;2023-07-31T00:54:41;17.80;99.90
19928;DHT22;10126;50.876;4.470;2023-07-31T00:56:45;17.70;99.90
19928;DHT22;10126;50.876;4.470;2023-07-31T00:58:46;17.70;99.90
19928;DHT22;10126;50.876;4.470;2023-07-31T01:00:46;17.80;99.90
19928;DHT22;10126;50.876;4.470;2023-07-31T01:02:49;17.80;99.90
19928;DHT22;10126;50.876;4.470;2023-07-31T01:04:50;17.80;99.90
19928;DHT22;10126;50.876;4.470;2023-07-31T01:07:49;17.90;99.90
19928;DHT22;10126;50.876;4.470;2023-07-31T01:10:00;17.80;99.90
19928;DHT22;10126;50.876;4.470;2023-07-31T01:12:04;17.80;99.90
19928;DHT22;10126;50.876;4.470;2023-07-31T01:14:07;17.70;99.90
19928;DHT22;10126;50.876;4.470;2023-07-31T01:16:07;17.60;99.90
19928;DHT22;10126;50.876;4.470;2023-07-31T01:18:08;17.60;99.90
19928;DHT22;10126;50.876;4.470;2023-07-31T01:20:20;17.60;99.90
19928;DHT22;10126;50.876;4.470;2023-07-31T01:25:05;17.60;99.90
19928;DHT22;10126;50.876;4.470;2023-07-31T01:27:17;17.70;99.90
19928;DHT22;10126;50.876;4.470;2023-07-31T01:31:36;17.50;99.90
19928;DHT22;10126;50.876;4.470;2023-07-31T01:33:37;17.50;99.90
19928;DHT22;10126;50.876;4.470;2023-07-31T01:35:38;17.60;99.90
19928;DHT22;10126;50.876;4.470;2023-07-31T01:37:39;17.60;99.90
19928;DHT22;10126;50.876;4.470;2023-07-31T01:39:40;17.70;99.90
19928;DHT22;10126;50.876;4.470;2023-07-31T01:41:41;17.70;99.90
19928;DHT22;10126;50.876;4.470;2023-07-31T01:43:41;17.70;99.90
19928;DHT22;10126;50.876;4.470;2023-07-31T01:45:42;17.70;99.90
19928;DHT22;10126;50.876;4.470;2023-07-31T01:47:42;17.70;99.90
19928;DHT22;10126;50.876;4.470;2023-07-31T01:49:43;17.70;99.90
19928;DHT22;10126;50.876;4.470;2023-07-31T01:51:44;17.70;99.90
19928;DHT22;10126;50.876;4.470;2023-07-31T01:53:44;17.70;99.90
19928;DHT22;10126;50.876;4.470;2023-07-31T01:55:45;17.60;99.90
19928;DHT22;10126;50.876;4.470;2023-07-31T01:57:45;17.70;99.90
19928;DHT22;10126;50.876;4.470;2023-07-31T01:59:46;17.80;99.90
19928;DHT22;10126;50.876;4.470;2023-07-31T02:01:47;17.80;99.90
19928;DHT22;10126;50.876;4.470;2023-07-31T02:03:47;17.70;99.90
19928;DHT22;10126;50.876;4.470;2023-07-31T02:05:49;17.70;99.90
19928;DHT22;10126;50.876;4.470;2023-07-31T02:07:49;17.80;99.90
19928;DHT22;10126;50.876;4.470;2023-07-31T02:09:50;17.80;99.90
19928;DHT22;10126;50.876;4.470;2023-07-31T02:11:51;17.80;99.90
19928;DHT22;10126;50.876;4.470;2023-07-31T02:13:52;17.90;99.90
19928;DHT22;10126;50.876;4.470;2023-07-31T02:15:52;18.00;99.90
19928;DHT22;10126;50.876;4.470;2023-07-31T02:17:53;18.00;99.90
19928;DHT22;10126;50.876;4.470;2023-07-31T02:19:53;18.10;99.90
19928;DHT22;10126;50.876;4.470;2023-07-31T02:21:54;18.10;99.90
19928;DHT22;10126;50.876;4.470;2023-07-31T02:23:55;18.10;99.90
19928;DHT22;10126;50.876;4.470;2023-07-31T02:25:55;18.00;99.90
19928;DHT22;10126;50.876;4.470;2023-07-31T02:27:56;18.10;99.90
19928;DHT22;10126;50.876;4.470;2023-07-31T02:29:59;18.00;99.90
19928;DHT22;10126;50.876;4.470;2023-07-31T02:32:00;18.10;99.90
19928;DHT22;10126;50.876;4.470;2023-07-31T02:34:01;18.10;99.90
19928;DHT22;10126;50.876;4.470;2023-07-31T02:36:01;18.20;99.90
19928;DHT22;10126;50.876;4.470;2023-07-31T02:38:02;18.00;99.90
19928;DHT22;10126;50.876;4.470;2023-07-31T02:40:03;18.00;99.90
19928;DHT22;10126;50.876;4.470;2023-07-31T02:42:04;18.00;99.90
19928;DHT22;10126;50.876;4.470;2023-07-31T02:44:05;18.20;99.90
19928;DHT22;10126;50.876;4.470;2023-07-31T02:46:05;18.10;99.90
19928;DHT22;10126;50.876;4.470;2023-07-31T02:48:06;18.00;99.90
19928;DHT22;10126;50.876;4.470;2023-07-31T02:50:09;18.10;99.90
19928;DHT22;10126;50.876;4.470;2023-07-31T02:52:10;18.10;99.90
19928;DHT22;10126;50.876;4.470;2023-07-31T02:54:13;18.10;99.90
19928;DHT22;10126;50.876;4.470;2023-07-31T02:56:14;18.10;99.90
19928;DHT22;10126;50.876;4.470;2023-07-31T02:58:17;18.00;99.90
19928;DHT22;10126;50.876;4.470;2023-07-31T03:00:19;18.10;99.90
19928;DHT22;10126;50.876;4.470;2023-07-31T03:02:19;18.00;99.90
19928;DHT22;10126;50.876;4.470;2023-07-31T03:04:20;18.10;99.90
19928;DHT22;10126;50.876;4.470;2023-07-31T03:06:20;18.20;99.90
19928;DHT22;10126;50.876;4.470;2023-07-31T03:08:21;18.10;99.90
19928;DHT22;10126;50.876;4.470;2023-07-31T03:10:22;18.10;99.90
19928;DHT22;10126;50.876;4.470;2023-07-31T03:12:23;18.20;99.90
19928;DHT22;10126;50.876;4.470;2023-07-31T03:14:26;18.20;99.90
19928;DHT22;10126;50.876;4.470;2023-07-31T03:16:27;18.10;99.90
19928;DHT22;10126;50.876;4.470;2023-07-31T03:18:28;18.00;99.90
19928;DHT22;10126;50.876;4.470;2023-07-31T03:20:28;18.00;99.90
19928;DHT22;10126;50.876;4.470;2023-07-31T03:22:29;18.10;99.90
19928;DHT22;10126;50.876;4.470;2023-07-31T03:24:30;18.00;99.90
19928;DHT22;10126;50.876;4.470;2023-07-31T03:26:33;18.00;99.90
19928;DHT22;10126;50.876;4.470;2023-07-31T03:28:34;18.00;99.90
19928;DHT22;10126;50.876;4.470;2023-07-31T03:30:36;18.00;99.90
19928;DHT22;10126;50.876;4.470;2023-07-31T03:32:41;17.90;99.90
19928;DHT22;10126;50.876;4.470;2023-07-31T03:34:42;17.80;99.90
19928;DHT22;10126;50.876;4.470;2023-07-31T03:36:51;17.80;99.90
19928;DHT22;10126;50.876;4.470;2023-07-31T03:38:52;17.80;99.90
19928;DHT22;10126;50.876;4.470;2023-07-31T03:40:52;17.90;99.90
19928;DHT22;10126;50.876;4.470;2023-07-31T03:42:53;17.90;99.90
19928;DHT22;10126;50.876;4.470;2023-07-31T03:44:54;18.10;99.90
19928;DHT22;10126;50.876;4.470;2023-07-31T03:46:54;17.90;99.90
19928;DHT22;10126;50.876;4.470;2023-07-31T03:48:55;17.80;99.90
19928;DHT22;10126;50.876;4.470;2023-07-31T03:50:56;17.80;99.90
19928;DHT22;10126;50.876;4.470;2023-07-31T03:52:56;17.80;99.90
19928;DHT22;10126;50.876;4.470;2023-07-31T03:54:57;17.80;99.90
19928;DHT22;10126;50.876;4.470;2023-07-31T03:56:58;17.80;99.90
19928;DHT22;10126;50.876;4.470;2023-07-31T03:58:58;17.80;99.90
19928;DHT22;10126;50.876;4.470;2023-07-31T04:00:59;17.80;99.90
19928;DHT22;10126;50.876;4.470;2023-07-31T04:03:00;17.80;99.90
19928;DHT22;10126;50.876;4.470;2023-07-31T04:05:00;17.70;99.90
19928;DHT22;10126;50.876;4.470;2023-07-31T04:07:01;17.60;99.90
19928;DHT22;10126;50.876;4.470;2023-07-31T04:09:02;17.70;99.90
19928;DHT22;10126;50.876;4.470;2023-07-31T04:11:03;17.70;99.90
19928;DHT22;10126;50.876;4.470;2023-07-31T04:13:04;17.70;99.90
19928;DHT22;10126;50.876;4.470;2023-07-31T04:15:05;17.70;99.90
19928;DHT22;10126;50.876;4.470;2023-07-31T04:17:05;17.70;99.90
19928;DHT22;10126;50.876;4.470;2023-07-31T04:19:06;17.60;99.90
19928;DHT22;10126;50.876;4.470;2023-07-31T04:21:07;17.40;99.90
19928;DHT22;10126;50.876;4.470;2023-07-31T04:23:07;17.40;99.90
19928;DHT22;10126;50.876;4.470;2023-07-31T04:25:08;17.40;99.90
19928;DHT22;10126;50.876;4.470;2023-07-31T04:27:09;17.30;99.90
19928;DHT22;10126;50.876;4.470;2023-07-31T04:29:09;17.30;99.90
19928;DHT22;10126;50.876;4.470;2023-07-31T04:31:10;17.50;99.90
19928;DHT22;10126;50.876;4.470;2023-07-31T04:33:11;17.60;99.90
19928;DHT22;10126;50.876;4.470;2023-07-31T04:35:11;17.50;99.90
19928;DHT22;10126;50.876;4.470;2023-07-31T04:37:12;17.50;99.90
19928;DHT22;10126;50.876;4.470;2023-07-31T04:39:13;17.50;99.90
19928;DHT22;10126;50.876;4.470;2023-07-31T04:41:13;17.70;99.90
19928;DHT22;10126;50.876;4.470;2023-07-31T04:43:14;17.60;99.90
19928;DHT22;10126;50.876;4.470;2023-07-31T04:45:15;17.50;99.90
19928;DHT22;10126;50.876;4.470;2023-07-31T04:47:15;17.60;99.90
19928;DHT22;10126;50.876;4.470;2023-07-31T04:49:16;17.70;99.90
19928;DHT22;10126;50.876;4.470;2023-07-31T04:51:17;17.70;99.90
19928;DHT22;10126;50.876;4.470;2023-07-31T04:53:18;17.70;99.90
19928;DHT22;10126;50.876;4.470;2023-07-31T04:55:19;17.70;99.90
19928;DHT22;10126;50.876;4.470;2023-07-31T04:57:19;17.60;99.90
19928;DHT22;10126;50.876;4.470;2023-07-31T04:59:20;17.60;99.90
19928;DHT22;10126;50.876;4.470;2023-07-31T05:01:21;17.60;99.90
19928;DHT22;10126;50.876;4.470;2023-07-31T05:03:21;17.60;99.90
19928;DHT22;10126;50.876;4.470;2023-07-31T05:05:22;17.70;99.90
19928;DHT22;10126;50.876;4.470;2023-07-31T05:07:23;17.70;99.90
19928;DHT22;10126;50.876;4.470;2023-07-31T05:09:23;17.70;99.90
19928;DHT22;10126;50.876;4.470;2023-07-31T05:11:24;17.60;99.90
19928;DHT22;10126;50.876;4.470;2023-07-31T05:13:25;17.50;99.90
19928;DHT22;10126;50.876;4.470;2023-07-31T05:15:25;17.60;99.90
19928;DHT22;10126;50.876;4.470;2023-07-31T05:17:26;17.60;99.90
19928;DHT22;10126;50.876;4.470;2023-07-31T05:19:26;17.50;99.90
19928;DHT22;10126;50.876;4.470;2023-07-31T05:21:27;17.60;99.90
19928;DHT22;10126;50.876;4.470;2023-07-31T05:23:28;17.50;99.90
19928;DHT22;10126;50.876;4.470;2023-07-31T05:25:28;17.40;99.90
19928;DHT22;10126;50.876;4.470;2023-07-31T05:27:29;17.40;99.90
19928;DHT22;10126;50.876;4.470;2023-07-31T05:29:32;17.20;99.90
19928;DHT22;10126;50.876;4.470;2023-07-31T05:31:33;17.20;99.90
19928;DHT22;10126;50.876;4.470;2023-07-31T05:33:34;17.20;99.90
19928;DHT22;10126;50.876;4.470;2023-07-31T05:35:34;17.10;99.90
19928;DHT22;10126;50.876;4.470;2023-07-31T05:37:35;17.20;99.90
19928;DHT22;10126;50.876;4.470;2023-07-31T05:39:35;17.20;99.90
19928;DHT22;10126;50.876;4.470;2023-07-31T05:41:36;17.20;99.90
19928;DHT22;10126;50.876;4.470;2023-07-31T05:43:37;17.20;99.90
19928;DHT22;10126;50.876;4.470;2023-07-31T05:45:37;17.10;99.90
19928;DHT22;10126;50.876;4.470;2023-07-31T05:47:38;17.10;99.90
19928;DHT22;10126;50.876;4.470;2023-07-31T05:49:39;17.10;99.90
19928;DHT22;10126;50.876;4.470;2023-07-31T05:51:40;17.10;99.90
19928;DHT22;10126;50.876;4.470;2023-07-31T05:53:40;17.10;99.90
19928;DHT22;10126;50.876;4.470;2023-07-31T05:55:41;17.20;99.90
19928;DHT22;10126;50.876;4.470;2023-07-31T05:57:41;17.10;99.90
19928;DHT22;10126;50.876;4.470;2023-07-31T05:59:42;17.00;99.90
19928;DHT22;10126;50.876;4.470;2023-07-31T06:01:43;17.10;99.90
19928;DHT22;10126;50.876;4.470;2023-07-31T06:03:43;17.10;99.90
19928;DHT22;10126;50.876;4.470;2023-07-31T06:05:44;17.10;99.90
19928;DHT22;10126;50.876;4.470;2023-07-31T06:07:45;17.20;99.90
19928;DHT22;10126;50.876;4.470;2023-07-31T06:09:45;17.30;99.90
19928;DHT22;10126;50.876;4.470;2023-07-31T06:11:46;17.40;99.90
19928;DHT22;10126;50.876;4.470;2023-07-31T06:13:47;17.40;99.90
19928;DHT22;10126;50.876;4.470;2023-07-31T06:15:48;17.30;99.90
19928;DHT22;10126;50.876;4.470;2023-07-31T06:17:49;17.30;99.90
19928;DHT22;10126;50.876;4.470;2023-07-31T06:19:50;17.40;99.90
19928;DHT22;10126;50.876;4.470;2023-07-31T06:21:51;17.50;99.90
19928;DHT22;10126;50.876;4.470;2023-07-31T06:23:52;17.60;99.90
19928;DHT22;10126;50.876;4.470;2023-07-31T06:25:52;17.60;99.90
19928;DHT22;10126;50.876;4.470;2023-07-31T06:27:53;17.70;99.90
19928;DHT22;10126;50.876;4.470;2023-07-31T06:29:53;17.70;99.90
19928;DHT22;10126;50.876;4.470;2023-07-31T06:31:54;17.90;99.90
19928;DHT22;10126;50.876;4.470;2023-07-31T06:33:55;17.80;99.90
19928;DHT22;10126;50.876;4.470;2023-07-31T06:35:55;17.90;99.90
19928;DHT22;10126;50.876;4.470;2023-07-31T06:37:56;17.90;99.90
19928;DHT22;10126;50.876;4.470;2023-07-31T06:39:57;18.00;99.90
19928;DHT22;10126;50.876;4.470;2023-07-31T06:41:57;18.00;99.90
19928;DHT22;10126;50.876;4.470;2023-07-31T06:43:58;18.00;99.90
19928;DHT22;10126;50.876;4.470;2023-07-31T06:46:05;18.10;99.90
19928;DHT22;10126;50.876;4.470;2023-07-31T06:48:06;18.10;99.90
19928;DHT22;10126;50.876;4.470;2023-07-31T06:50:08;18.20;99.90
19928;DHT22;10126;50.876;4.470;2023-07-31T06:52:08;18.20;99.90
19928;DHT22;10126;50.876;4.470;2023-07-31T06:54:11;18.30;99.90
19928;DHT22;10126;50.876;4.470;2023-07-31T06:56:12;18.40;99.90
19928;DHT22;10126;50.876;4.470;2023-07-31T06:58:13;18.60;99.90
19928;DHT22;10126;50.876;4.470;2023-07-31T07:00:14;18.70;99.90
19928;DHT22;10126;50.876;4.470;2023-07-31T07:02:14;18.90;99.90
19928;DHT22;10126;50.876;4.470;2023-07-31T07:04:15;19.00;99.90
19928;DHT22;10126;50.876;4.470;2023-07-31T07:06:16;19.20;99.90
19928;DHT22;10126;50.876;4.470;2023-07-31T07:08:17;19.00;99.90
19928;DHT22;10126;50.876;4.470;2023-07-31T07:10:18;19.10;99.90
19928;DHT22;10126;50.876;4.470;2023-07-31T07:12:18;19.20;99.90
19928;DHT22;10126;50.876;4.470;2023-07-31T07:14:19;19.40;99.90
19928;DHT22;10126;50.876;4.470;2023-07-31T07:16:20;19.60;99.90
19928;DHT22;10126;50.876;4.470;2023-07-31T07:18:21;20.10;99.90
19928;DHT22;10126;50.876;4.470;2023-07-31T07:20:21;20.30;99.90
19928;DHT22;10126;50.876;4.470;2023-07-31T07:22:22;20.50;99.90
19928;DHT22;10126;50.876;4.470;2023-07-31T07:24:23;20.60;99.90
19928;DHT22;10126;50.876;4.470;2023-07-31T07:26:24;20.70;99.90
19928;DHT22;10126;50.876;4.470;2023-07-31T07:28:24;20.90;99.90
19928;DHT22;10126;50.876;4.470;2023-07-31T07:30:25;20.80;99.90
19928;DHT22;10126;50.876;4.470;2023-07-31T07:32:26;20.70;99.90
19928;DHT22;10126;50.876;4.470;2023-07-31T07:34:27;20.40;99.90
19928;DHT22;10126;50.876;4.470;2023-07-31T07:36:28;20.10;99.90
19928;DHT22;10126;50.876;4.470;2023-07-31T07:38:29;19.90;99.90
19928;DHT22;10126;50.876;4.470;2023-07-31T07:40:29;19.60;99.90
19928;DHT22;10126;50.876;4.470;2023-07-31T07:42:30;19.60;99.90
19928;DHT22;10126;50.876;4.470;2023-07-31T07:44:31;19.70;99.90
19928;DHT22;10126;50.876;4.470;2023-07-31T07:46:32;19.70;99.90
19928;DHT22;10126;50.876;4.470;2023-07-31T07:48:32;19.80;99.90
19928;DHT22;10126;50.876;4.470;2023-07-31T07:50:33;19.80;99.90
19928;DHT22;10126;50.876;4.470;2023-07-31T07:52:34;19.90;99.90
19928;DHT22;10126;50.876;4.470;2023-07-31T07:54:34;19.70;99.90
19928;DHT22;10126;50.876;4.470;2023-07-31T07:56:35;19.80;99.90
19928;DHT22;10126;50.876;4.470;2023-07-31T07:58:36;19.90;99.90
19928;DHT22;10126;50.876;4.470;2023-07-31T08:00:37;19.90;99.90
19928;DHT22;10126;50.876;4.470;2023-07-31T08:02:37;19.90;99.90
19928;DHT22;10126;50.876;4.470;2023-07-31T08:04:38;20.10;99.90
19928;DHT22;10126;50.876;4.470;2023-07-31T08:06:40;20.20;99.90
19928;DHT22;10126;50.876;4.470;2023-07-31T08:08:40;20.20;99.90
19928;DHT22;10126;50.876;4.470;2023-07-31T08:10:41;20.20;99.90
19928;DHT22;10126;50.876;4.470;2023-07-31T08:12:42;20.20;99.90
19928;DHT22;10126;50.876;4.470;2023-07-31T08:14:43;20.00;99.90
19928;DHT22;10126;50.876;4.470;2023-07-31T08:16:44;20.00;99.90
19928;DHT22;10126;50.876;4.470;2023-07-31T08:18:44;20.00;99.90
19928;DHT22;10126;50.876;4.470;2023-07-31T08:20:45;20.00;99.90
19928;DHT22;10126;50.876;4.470;2023-07-31T08:22:45;19.90;99.90
19928;DHT22;10126;50.876;4.470;2023-07-31T08:24:46;20.00;99.90
19928;DHT22;10126;50.876;4.470;2023-07-31T08:26:47;20.00;99.90
19928;DHT22;10126;50.876;4.470;2023-07-31T08:28:48;20.00;99.90
19928;DHT22;10126;50.876;4.470;2023-07-31T08:30:49;20.00;99.90
19928;DHT22;10126;50.876;4.470;2023-07-31T08:32:50;20.10;99.90
19928;DHT22;10126;50.876;4.470;2023-07-31T08:34:51;19.90;99.90
19928;DHT22;10126;50.876;4.470;2023-07-31T08:36:52;19.80;99.90
19928;DHT22;10126;50.876;4.470;2023-07-31T08:38:52;19.90;99.90
19928;DHT22;10126;50.876;4.470;2023-07-31T08:40:53;19.80;99.90
19928;DHT22;10126;50.876;4.470;2023-07-31T08:42:55;19.90;99.90
19928;DHT22;10126;50.876;4.470;2023-07-31T08:45:03;20.00;99.90
19928;DHT22;10126;50.876;4.470;2023-07-31T08:47:04;19.90;99.90
19928;DHT22;10126;50.876;4.470;2023-07-31T08:49:06;19.80;99.90
19928;DHT22;10126;50.876;4.470;2023-07-31T08:51:07;19.80;99.90
19928;DHT22;10126;50.876;4.470;2023-07-31T08:53:08;19.70;99.90
19928;DHT22;10126;50.876;4.470;2023-07-31T08:55:09;19.80;99.90
19928;DHT22;10126;50.876;4.470;2023-07-31T08:57:11;19.60;99.90
19928;DHT22;10126;50.876;4.470;2023-07-31T08:59:13;19.70;99.90
19928;DHT22;10126;50.876;4.470;2023-07-31T09:01:15;19.80;99.90
19928;DHT22;10126;50.876;4.470;2023-07-31T09:03:18;19.70;99.90
19928;DHT22;10126;50.876;4.470;2023-07-31T09:05:19;19.70;99.90
19928;DHT22;10126;50.876;4.470;2023-07-31T09:07:20;19.60;99.90
19928;DHT22;10126;50.876;4.470;2023-07-31T09:09:21;19.70;99.90
19928;DHT22;10126;50.876;4.470;2023-07-31T09:11:23;19.70;99.90
19928;DHT22;10126;50.876;4.470;2023-07-31T09:13:25;19.60;99.90
19928;DHT22;10126;50.876;4.470;2023-07-31T09:15:26;19.80;99.90
19928;DHT22;10126;50.876;4.470;2023-07-31T09:17:33;19.90;99.90
19928;DHT22;10126;50.876;4.470;2023-07-31T09:19:35;19.90;99.90
19928;DHT22;10126;50.876;4.470;2023-07-31T09:21:48;20.00;99.90
19928;DHT22;10126;50.876;4.470;2023-07-31T09:23:49;20.20;99.90
19928;DHT22;10126;50.876;4.470;2023-07-31T09:25:53;20.20;99.90
19928;DHT22;10126;50.876;4.470;2023-07-31T09:27:59;20.10;99.90
19928;DHT22;10126;50.876;4.470;2023-07-31T09:30:00;20.10;99.90
19928;DHT22;10126;50.876;4.470;2023-07-31T09:32:01;20.10;99.90
19928;DHT22;10126;50.876;4.470;2023-07-31T09:34:01;20.40;99.90
19928;DHT22;10126;50.876;4.470;2023-07-31T09:36:04;20.60;99.90
19928;DHT22;10126;50.876;4.470;2023-07-31T09:38:07;20.90;99.90
19928;DHT22;10126;50.876;4.470;2023-07-31T09:40:09;21.30;99.90
19928;DHT22;10126;50.876;4.470;2023-07-31T09:42:09;21.30;99.90
19928;DHT22;10126;50.876;4.470;2023-07-31T09:44:10;21.40;99.90
19928;DHT22;10126;50.876;4.470;2023-07-31T09:46:14;21.30;99.90
19928;DHT22;10126;50.876;4.470;2023-07-31T09:48:17;21.00;99.90
19928;DHT22;10126;50.876;4.470;2023-07-31T09:50:19;20.90;99.90
19928;DHT22;10126;50.876;4.470;2023-07-31T09:52:20;20.90;99.90
19928;DHT22;10126;50.876;4.470;2023-07-31T09:54:21;21.00;99.90
19928;DHT22;10126;50.876;4.470;2023-07-31T09:56:23;21.00;99.90
19928;DHT22;10126;50.876;4.470;2023-07-31T09:58:25;20.90;99.90
19928;DHT22;10126;50.876;4.470;2023-07-31T10:00:30;21.00;99.90
19928;DHT22;10126;50.876;4.470;2023-07-31T10:02:32;21.00;99.90
19928;DHT22;10126;50.876;4.470;2023-07-31T10:04:33;20.80;99.90
19928;DHT22;10126;50.876;4.470;2023-07-31T10:06:34;20.70;99.90
19928;DHT22;10126;50.876;4.470;2023-07-31T10:08:36;20.70;99.90
19928;DHT22;10126;50.876;4.470;2023-07-31T10:10:37;20.70;99.90
19928;DHT22;10126;50.876;4.470;2023-07-31T10:12:42;20.80;99.90
19928;DHT22;10126;50.876;4.470;2023-07-31T10:14:44;20.80;99.90
19928;DHT22;10126;50.876;4.470;2023-07-31T10:16:45;20.80;99.90
19928;DHT22;10126;50.876;4.470;2023-07-31T10:18:46;20.90;99.90
19928;DHT22;10126;50.876;4.470;2023-07-31T10:20:48;20.80;99.90
19928;DHT22;10126;50.876;4.470;2023-07-31T10:22:49;20.60;99.90
19928;DHT22;10126;50.876;4.470;2023-07-31T10:24:52;20.70;99.90
19928;DHT22;10126;50.876;4.470;2023-07-31T10:26:58;21.10;99.90
19928;DHT22;10126;50.876;4.470;2023-07-31T10:29:00;21.20;99.90
19928;DHT22;10126;50.876;4.470;2023-07-31T10:31:02;21.40;99.90
19928;DHT22;10126;50.876;4.470;2023-07-31T10:33:06;21.70;99.90
19928;DHT22;10126;50.876;4.470;2023-07-31T10:35:08;21.50;99.90
19928;DHT22;10126;50.876;4.470;2023-07-31T10:37:28;21.60;99.90
19928;DHT22;10126;50.876;4.470;2023-07-31T10:39:37;21.80;99.90
19928;DHT22;10126;50.876;4.470;2023-07-31T10:41:38;21.80;99.90
19928;DHT22;10126;50.876;4.470;2023-07-31T10:43:40;21.90;99.90
19928;DHT22;10126;50.876;4.470;2023-07-31T10:45:44;21.80;99.90
19928;DHT22;10126;50.876;4.470;2023-07-31T10:47:46;21.80;99.90
19928;DHT22;10126;50.876;4.470;2023-07-31T10:49:46;21.70;99.90
19928;DHT22;10126;50.876;4.470;2023-07-31T10:51:47;21.70;99.90
19928;DHT22;10126;50.876;4.470;2023-07-31T10:53:48;21.70;99.90
19928;DHT22;10126;50.876;4.470;2023-07-31T10:55:49;21.60;99.90
19928;DHT22;10126;50.876;4.470;2023-07-31T10:57:53;21.60;99.90
19928;DHT22;10126;50.876;4.470;2023-07-31T11:00:31;21.60;99.90
19928;DHT22;10126;50.876;4.470;2023-07-31T11:02:33;21.60;99.90
19928;DHT22;10126;50.876;4.470;2023-07-31T11:04:34;21.70;99.90
19928;DHT22;10126;50.876;4.470;2023-07-31T11:06:36;22.00;99.90
19928;DHT22;10126;50.876;4.470;2023-07-31T11:08:45;22.10;99.90
19928;DHT22;10126;50.876;4.470;2023-07-31T11:10:47;22.10;99.90
19928;DHT22;10126;50.876;4.470;2023-07-31T11:12:49;22.10;99.90
19928;DHT22;10126;50.876;4.470;2023-07-31T11:14:57;22.00;99.90
19928;DHT22;10126;50.876;4.470;2023-07-31T11:16:57;22.20;99.90
19928;DHT22;10126;50.876;4.470;2023-07-31T11:18:58;22.30;99.90
19928;DHT22;10126;50.876;4.470;2023-07-31T11:20:58;22.50;99.90
19928;DHT22;10126;50.876;4.470;2023-07-31T11:23:05;22.60;99.90
19928;DHT22;10126;50.876;4.470;2023-07-31T11:25:07;22.80;99.90
19928;DHT22;10126;50.876;4.470;2023-07-31T11:27:09;22.80;99.90
19928;DHT22;10126;50.876;4.470;2023-07-31T11:29:13;22.70;99.90
19928;DHT22;10126;50.876;4.470;2023-07-31T11:31:14;22.80;99.90
19928;DHT22;10126;50.876;4.470;2023-07-31T11:33:14;22.40;99.90
19928;DHT22;10126;50.876;4.470;2023-07-31T11:35:15;22.40;99.90
19928;DHT22;10126;50.876;4.470;2023-07-31T11:37:16;22.40;99.90
19928;DHT22;10126;50.876;4.470;2023-07-31T11:39:16;22.40;99.90
19928;DHT22;10126;50.876;4.470;2023-07-31T11:41:17;22.50;99.90
19928;DHT22;10126;50.876;4.470;2023-07-31T11:43:19;22.50;99.90
19928;DHT22;10126;50.876;4.470;2023-07-31T11:45:19;22.60;99.90
19928;DHT22;10126;50.876;4.470;2023-07-31T11:47:20;22.40;99.90
19928;DHT22;10126;50.876;4.470;2023-07-31T11:49:21;22.20;99.90
19928;DHT22;10126;50.876;4.470;2023-07-31T11:51:22;21.80;99.90
19928;DHT22;10126;50.876;4.470;2023-07-31T11:55:32;21.70;99.90
19928;DHT22;10126;50.876;4.470;2023-07-31T11:57:33;21.80;99.90
19928;DHT22;10126;50.876;4.470;2023-07-31T11:59:34;21.80;99.90
19928;DHT22;10126;50.876;4.470;2023-07-31T12:01:35;21.80;99.90
19928;DHT22;10126;50.876;4.470;2023-07-31T12:03:37;21.70;99.90
19928;DHT22;10126;50.876;4.470;2023-07-31T12:05:38;21.70;99.90
19928;DHT22;10126;50.876;4.470;2023-07-31T12:09:55;21.90;99.90
19928;DHT22;10126;50.876;4.470;2023-07-31T12:11:56;22.00;99.90
19928;DHT22;10126;50.876;4.470;2023-07-31T12:13:56;22.10;99.90
19928;DHT22;10126;50.876;4.470;2023-07-31T12:15:59;22.10;99.90
19928;DHT22;10126;50.876;4.470;2023-07-31T12:18:03;22.40;99.90
19928;DHT22;10126;50.876;4.470;2023-07-31T12:20:05;22.50;99.90
19928;DHT22;10126;50.876;4.470;2023-07-31T12:22:15;22.60;99.90
19928;DHT22;10126;50.876;4.470;2023-07-31T12:24:19;22.50;99.90
19928;DHT22;10126;50.876;4.470;2023-07-31T12:26:19;22.30;99.90
19928;DHT22;10126;50.876;4.470;2023-07-31T12:28:22;22.20;99.90
19928;DHT22;10126;50.876;4.470;2023-07-31T12:30:27;21.90;99.90
19928;DHT22;10126;50.876;4.470;2023-07-31T12:32:30;21.90;99.90
19928;DHT22;10126;50.876;4.470;2023-07-31T12:34:30;21.80;99.90
19928;DHT22;10126;50.876;4.470;2023-07-31T12:36:31;21.70;99.90
19928;DHT22;10126;50.876;4.470;2023-07-31T12:38:36;21.90;99.90
19928;DHT22;10126;50.876;4.470;2023-07-31T12:40:38;22.00;99.90
19928;DHT22;10126;50.876;4.470;2023-07-31T12:42:41;22.20;99.90
19928;DHT22;10126;50.876;4.470;2023-07-31T12:44:41;22.50;99.90
19928;DHT22;10126;50.876;4.470;2023-07-31T12:46:42;22.50;99.90
19928;DHT22;10126;50.876;4.470;2023-07-31T12:48:43;22.50;99.90
19928;DHT22;10126;50.876;4.470;2023-07-31T12:50:43;22.50;99.90
19928;DHT22;10126;50.876;4.470;2023-07-31T12:52:44;22.50;99.90
19928;DHT22;10126;50.876;4.470;2023-07-31T12:54:45;22.40;99.90
19928;DHT22;10126;50.876;4.470;2023-07-31T12:56:45;22.50;99.90
19928;DHT22;10126;50.876;4.470;2023-07-31T12:58:46;22.60;99.90